sensor_id;sensor_type;location;lat;lon;timestamp;temperature;humidity
30336;DHT22;17142;47.990;7.846;2023-01-31T00:01:31;0.90;99.90
30336;DHT22;17142;47.990;7.846;2023-01-31T06:59:28;-2.00;99.90
30336;DHT22;17142;47.990;7.846;2023-01-31T07:01:54;-1.90;99.90
30336;DHT22;17142;47.990;7.846;2023-01-31T07:04:19;-1.90;99.90
30336;DHT22;17142;47.990;7.846;2023-01-31T07:06:45;-1.80;99.90
30336;DHT22;17142;47.990;7.846;2023-01-31T07:09:15;-1.70;99.90
30336;DHT22;17142;47.990;7.846;2023-01-31T07:11:41;-1.70;99.90
30336;DHT22;17142;47.990;7.846;2023-01-31T07:14:07;-1.70;99.90
30336;DHT22;17142;47.990;7.846;2023-01-31T07:16:32;-1.60;99.90
30336;DHT22;17142;47.990;7.846;2023-01-31T07:19:00;-1.60;99.90
30336;DHT22;17142;47.990;7.846;2023-01-31T07:21:26;-1.50;99.90
30336;DHT22;17142;47.990;7.846;2023-01-31T07:23:53;-1.50;99.90
30336;DHT22;17142;47.990;7.846;2023-01-31T07:26:19;-1.50;99.90
30336;DHT22;17142;47.990;7.846;2023-01-31T07:28:45;-1.50;99.90
30336;DHT22;17142;47.990;7.846;2023-01-31T07:31:12;-1.40;99.90
30336;DHT22;17142;47.990;7.846;2023-01-31T07:33:39;-1.30;99.90
30336;DHT22;17142;47.990;7.846;2023-01-31T07:36:05;-1.30;99.90
30336;DHT22;17142;47.990;7.846;2023-01-31T07:38:32;-1.30;99.90
30336;DHT22;17142;47.990;7.846;2023-01-31T07:41:02;-1.30;99.90
30336;DHT22;17142;47.990;7.846;2023-01-31T07:43:31;-0.90;99.90
30336;DHT22;17142;47.990;7.846;2023-01-31T07:45:57;-0.70;99.90
30336;DHT22;17142;47.990;7.846;2023-01-31T07:48:23;-0.80;99.90
30336;DHT22;17142;47.990;7.846;2023-01-31T07:50:56;-0.80;99.90
30336;DHT22;17142;47.990;7.846;2023-01-31T07:53:25;-0.90;99.90
30336;DHT22;17142;47.990;7.846;2023-01-31T07:55:51;-0.90;99.90
30336;DHT22;17142;47.990;7.846;2023-01-31T07:58:17;-0.90;99.90
30336;DHT22;17142;47.990;7.846;2023-01-31T08:00:44;-0.80;99.90
30336;DHT22;17142;47.990;7.846;2023-01-31T08:03:30;-0.90;99.90
30336;DHT22;17142;47.990;7.846;2023-01-31T08:06:11;-0.80;99.90
30336;DHT22;17142;47.990;7.846;2023-01-31T08:08:38;-0.90;99.90
30336;DHT22;17142;47.990;7.846;2023-01-31T08:11:04;-0.80;99.90
30336;DHT22;17142;47.990;7.846;2023-01-31T08:13:34;-0.70;99.90
30336;DHT22;17142;47.990;7.846;2023-01-31T08:16:01;-0.70;99.90
30336;DHT22;17142;47.990;7.846;2023-01-31T08:18:27;-0.60;99.90
30336;DHT22;17142;47.990;7.846;2023-01-31T08:20:55;-0.50;99.90
30336;DHT22;17142;47.990;7.846;2023-01-31T08:23:23;-0.40;99.90
30336;DHT22;17142;47.990;7.846;2023-01-31T08:25:52;-0.30;99.90
30336;DHT22;17142;47.990;7.846;2023-01-31T08:28:23;-0.20;99.90
30336;DHT22;17142;47.990;7.846;2023-01-31T08:30:51;-0.20;99.90
30336;DHT22;17142;47.990;7.846;2023-01-31T08:33:16;-0.10;99.90
30336;DHT22;17142;47.990;7.846;2023-01-31T08:35:42;0.00;99.90
30336;DHT22;17142;47.990;7.846;2023-01-31T08:38:10;0.10;99.90
30336;DHT22;17142;47.990;7.846;2023-01-31T08:40:35;0.10;99.90
30336;DHT22;17142;47.990;7.846;2023-01-31T08:43:01;0.20;99.90
30336;DHT22;17142;47.990;7.846;2023-01-31T08:45:28;0.20;99.90
30336;DHT22;17142;47.990;7.846;2023-01-31T08:47:54;0.30;99.90
30336;DHT22;17142;47.990;7.846;2023-01-31T08:50:21;0.40;99.90
30336;DHT22;17142;47.990;7.846;2023-01-31T08:52:54;0.40;99.90
30336;DHT22;17142;47.990;7.846;2023-01-31T08:55:21;0.40;99.90
30336;DHT22;17142;47.990;7.846;2023-01-31T08:57:48;0.50;99.90
30336;DHT22;17142;47.990;7.846;2023-01-31T09:00:19;0.70;99.90
30336;DHT22;17142;47.990;7.846;2023-01-31T09:02:56;1.00;99.90
30336;DHT22;17142;47.990;7.846;2023-01-31T09:05:25;1.30;99.90
30336;DHT22;17142;47.990;7.846;2023-01-31T09:07:51;1.60;99.90
30336;DHT22;17142;47.990;7.846;2023-01-31T09:10:18;1.80;99.90
30336;DHT22;17142;47.990;7.846;2023-01-31T09:12:45;2.10;99.90
30336;DHT22;17142;47.990;7.846;2023-01-31T09:15:11;2.30;99.90
30336;DHT22;17142;47.990;7.846;2023-01-31T09:17:38;2.40;99.90
30336;DHT22;17142;47.990;7.846;2023-01-31T09:20:04;2.50;99.90
30336;DHT22;17142;47.990;7.846;2023-01-31T09:22:33;2.50;99.90
30336;DHT22;17142;47.990;7.846;2023-01-31T09:24:59;2.50;99.90
30336;DHT22;17142;47.990;7.846;2023-01-31T09:27:25;2.50;99.90
30336;DHT22;17142;47.990;7.846;2023-01-31T09:29:53;2.50;99.90
30336;DHT22;17142;47.990;7.846;2023-01-31T09:32:21;2.40;99.90
30336;DHT22;17142;47.990;7.846;2023-01-31T09:34:49;2.40;99.90
30336;DHT22;17142;47.990;7.846;2023-01-31T09:37:15;2.30;99.90
30336;DHT22;17142;47.990;7.846;2023-01-31T09:39:41;2.20;99.90
30336;DHT22;17142;47.990;7.846;2023-01-31T09:44:41;2.10;99.90
30336;DHT22;17142;47.990;7.846;2023-01-31T09:47:21;2.20;99.90
30336;DHT22;17142;47.990;7.846;2023-01-31T09:50:32;2.20;99.90
30336;DHT22;17142;47.990;7.846;2023-01-31T09:53:01;2.40;99.90
30336;DHT22;17142;47.990;7.846;2023-01-31T09:55:34;2.50;99.90
30336;DHT22;17142;47.990;7.846;2023-01-31T09:58:11;2.70;99.90
30336;DHT22;17142;47.990;7.846;2023-01-31T10:06:20;3.30;99.90
30336;DHT22;17142;47.990;7.846;2023-01-31T10:09:06;3.50;99.90
30336;DHT22;17142;47.990;7.846;2023-01-31T10:11:41;3.80;99.90
30336;DHT22;17142;47.990;7.846;2023-01-31T10:14:32;4.00;99.90
30336;DHT22;17142;47.990;7.846;2023-01-31T10:17:08;4.30;99.90
30336;DHT22;17142;47.990;7.846;2023-01-31T10:22:31;4.60;99.90
30336;DHT22;17142;47.990;7.846;2023-01-31T10:25:05;4.70;99.90
30336;DHT22;17142;47.990;7.846;2023-01-31T10:30:14;5.20;99.90
30336;DHT22;17142;47.990;7.846;2023-01-31T10:32:42;5.40;99.90
30336;DHT22;17142;47.990;7.846;2023-01-31T10:35:17;5.70;99.90
30336;DHT22;17142;47.990;7.846;2023-01-31T10:37:48;6.00;99.90
30336;DHT22;17142;47.990;7.846;2023-01-31T10:40:38;6.20;99.90
30336;DHT22;17142;47.990;7.846;2023-01-31T10:45:35;6.50;99.90
30336;DHT22;17142;47.990;7.846;2023-01-31T10:58:34;6.70;99.90
30336;DHT22;17142;47.990;7.846;2023-01-31T11:01:03;6.70;99.90
30336;DHT22;17142;47.990;7.846;2023-01-31T11:03:33;6.60;99.90
30336;DHT22;17142;47.990;7.846;2023-01-31T11:05:58;6.40;99.90
30336;DHT22;17142;47.990;7.846;2023-01-31T11:11:15;6.10;99.90
30336;DHT22;17142;47.990;7.846;2023-01-31T11:16:21;6.20;99.90
30336;DHT22;17142;47.990;7.846;2023-01-31T11:18:50;6.20;99.90
30336;DHT22;17142;47.990;7.846;2023-01-31T11:21:27;6.20;99.90
30336;DHT22;17142;47.990;7.846;2023-01-31T11:24:04;6.20;99.90
30336;DHT22;17142;47.990;7.846;2023-01-31T11:26:38;6.20;99.90
30336;DHT22;17142;47.990;7.846;2023-01-31T11:29:16;6.20;99.90
30336;DHT22;17142;47.990;7.846;2023-01-31T11:31:42;6.30;99.90
30336;DHT22;17142;47.990;7.846;2023-01-31T11:34:31;6.40;99.90
30336;DHT22;17142;47.990;7.846;2023-01-31T11:37:15;6.50;99.90
30336;DHT22;17142;47.990;7.846;2023-01-31T11:39:57;6.60;99.90
30336;DHT22;17142;47.990;7.846;2023-01-31T11:42:23;6.70;99.90
30336;DHT22;17142;47.990;7.846;2023-01-31T11:45:17;6.70;99.90
30336;DHT22;17142;47.990;7.846;2023-01-31T11:47:50;6.70;99.90
30336;DHT22;17142;47.990;7.846;2023-01-31T11:50:36;6.70;99.90
30336;DHT22;17142;47.990;7.846;2023-01-31T11:53:14;6.70;99.90
30336;DHT22;17142;47.990;7.846;2023-01-31T11:55:42;6.70;99.90
30336;DHT22;17142;47.990;7.846;2023-01-31T12:00:51;6.70;99.90
30336;DHT22;17142;47.990;7.846;2023-01-31T12:03:17;6.80;99.90
30336;DHT22;17142;47.990;7.846;2023-01-31T12:05:50;6.80;99.90
30336;DHT22;17142;47.990;7.846;2023-01-31T12:13:51;7.50;99.90
30336;DHT22;17142;47.990;7.846;2023-01-31T12:16:23;8.20;99.90
30336;DHT22;17142;47.990;7.846;2023-01-31T12:27:39;7.70;99.90
30336;DHT22;17142;47.990;7.846;2023-01-31T12:30:28;7.50;99.90
30336;DHT22;17142;47.990;7.846;2023-01-31T12:50:11;7.10;99.90
30336;DHT22;17142;47.990;7.846;2023-01-31T13:00:50;7.30;99.90
30336;DHT22;17142;47.990;7.846;2023-01-31T13:06:52;7.30;99.90
30336;DHT22;17142;47.990;7.846;2023-01-31T13:09:29;7.30;99.90
30336;DHT22;17142;47.990;7.846;2023-01-31T13:15:02;7.10;99.90
30336;DHT22;17142;47.990;7.846;2023-01-31T13:17:34;7.20;99.90
30336;DHT22;17142;47.990;7.846;2023-01-31T13:22:45;7.20;99.90
30336;DHT22;17142;47.990;7.846;2023-01-31T13:28:12;7.10;99.90
30336;DHT22;17142;47.990;7.846;2023-01-31T13:30:51;7.00;99.90
30336;DHT22;17142;47.990;7.846;2023-01-31T13:38:38;6.80;99.90
30336;DHT22;17142;47.990;7.846;2023-01-31T13:41:17;6.80;99.90
30336;DHT22;17142;47.990;7.846;2023-01-31T13:43:43;6.80;99.90
30336;DHT22;17142;47.990;7.846;2023-01-31T13:46:11;6.80;99.90
30336;DHT22;17142;47.990;7.846;2023-01-31T13:48:52;6.80;99.90
30336;DHT22;17142;47.990;7.846;2023-01-31T13:51:43;6.80;99.90
30336;DHT22;17142;47.990;7.846;2023-01-31T13:54:17;6.90;99.90
30336;DHT22;17142;47.990;7.846;2023-01-31T13:56:49;7.00;99.90
30336;DHT22;17142;47.990;7.846;2023-01-31T13:59:27;7.00;99.90
30336;DHT22;17142;47.990;7.846;2023-01-31T14:01:55;7.00;99.90
30336;DHT22;17142;47.990;7.846;2023-01-31T14:09:23;7.00;99.90
30336;DHT22;17142;47.990;7.846;2023-01-31T14:11:54;7.10;99.90
30336;DHT22;17142;47.990;7.846;2023-01-31T14:17:04;7.10;99.90
30336;DHT22;17142;47.990;7.846;2023-01-31T14:22:17;7.10;99.90
30336;DHT22;17142;47.990;7.846;2023-01-31T14:27:21;7.10;99.90
30336;DHT22;17142;47.990;7.846;2023-01-31T14:29:56;7.10;99.90
30336;DHT22;17142;47.990;7.846;2023-01-31T14:32:46;7.00;99.90
30336;DHT22;17142;47.990;7.846;2023-01-31T14:37:57;6.80;99.90
30336;DHT22;17142;47.990;7.846;2023-01-31T14:40:28;6.70;99.90
30336;DHT22;17142;47.990;7.846;2023-01-31T14:43:54;6.70;99.90
30336;DHT22;17142;47.990;7.846;2023-01-31T14:59:57;6.60;99.90
30336;DHT22;17142;47.990;7.846;2023-01-31T15:05:02;6.50;99.90
30336;DHT22;17142;47.990;7.846;2023-01-31T15:07:31;6.50;99.90
30336;DHT22;17142;47.990;7.846;2023-01-31T15:09:57;6.50;99.90
30336;DHT22;17142;47.990;7.846;2023-01-31T15:12:52;6.50;99.90
30336;DHT22;17142;47.990;7.846;2023-01-31T15:18:03;6.30;99.90
30336;DHT22;17142;47.990;7.846;2023-01-31T15:20:41;6.20;99.90
30336;DHT22;17142;47.990;7.846;2023-01-31T15:23:20;6.10;99.90
30336;DHT22;17142;47.990;7.846;2023-01-31T15:25:47;6.00;99.90
30336;DHT22;17142;47.990;7.846;2023-01-31T15:28:25;5.90;99.90
30336;DHT22;17142;47.990;7.846;2023-01-31T15:30:57;6.00;99.90
30336;DHT22;17142;47.990;7.846;2023-01-31T15:33:28;6.00;99.90
30336;DHT22;17142;47.990;7.846;2023-01-31T15:36:24;6.10;99.90
30336;DHT22;17142;47.990;7.846;2023-01-31T15:38:53;6.10;99.90
30336;DHT22;17142;47.990;7.846;2023-01-31T15:41:43;6.00;99.90
30336;DHT22;17142;47.990;7.846;2023-01-31T15:44:19;6.00;99.90
30336;DHT22;17142;47.990;7.846;2023-01-31T15:46:48;6.00;99.90
30336;DHT22;17142;47.990;7.846;2023-01-31T15:49:40;6.00;99.90
30336;DHT22;17142;47.990;7.846;2023-01-31T15:52:24;6.00;99.90
30336;DHT22;17142;47.990;7.846;2023-01-31T15:54:54;6.00;99.90
30336;DHT22;17142;47.990;7.846;2023-01-31T15:57:23;5.90;99.90
30336;DHT22;17142;47.990;7.846;2023-01-31T15:59:52;5.80;99.90
30336;DHT22;17142;47.990;7.846;2023-01-31T16:02:26;5.80;99.90
30336;DHT22;17142;47.990;7.846;2023-01-31T16:04:52;5.80;99.90
30336;DHT22;17142;47.990;7.846;2023-01-31T16:07:22;5.70;99.90
30336;DHT22;17142;47.990;7.846;2023-01-31T16:09:57;5.60;99.90
30336;DHT22;17142;47.990;7.846;2023-01-31T16:12:26;5.60;99.90
30336;DHT22;17142;47.990;7.846;2023-01-31T16:14:53;5.60;99.90
30336;DHT22;17142;47.990;7.846;2023-01-31T16:17:27;5.60;99.90
30336;DHT22;17142;47.990;7.846;2023-01-31T16:19:55;5.60;99.90
30336;DHT22;17142;47.990;7.846;2023-01-31T16:22:30;5.50;99.90
30336;DHT22;17142;47.990;7.846;2023-01-31T16:25:00;5.50;99.90
30336;DHT22;17142;47.990;7.846;2023-01-31T16:27:29;5.50;99.90
30336;DHT22;17142;47.990;7.846;2023-01-31T16:29:59;5.40;99.90
30336;DHT22;17142;47.990;7.846;2023-01-31T16:32:28;5.40;99.90
30336;DHT22;17142;47.990;7.846;2023-01-31T16:35:03;5.40;99.90
30336;DHT22;17142;47.990;7.846;2023-01-31T16:40:02;5.40;99.90
30336;DHT22;17142;47.990;7.846;2023-01-31T16:42:28;5.30;99.90
30336;DHT22;17142;47.990;7.846;2023-01-31T16:44:56;5.40;99.90
30336;DHT22;17142;47.990;7.846;2023-01-31T16:52:44;5.40;99.90
30336;DHT22;17142;47.990;7.846;2023-01-31T16:57:45;5.40;99.90
30336;DHT22;17142;47.990;7.846;2023-01-31T17:02:51;5.40;99.90
30336;DHT22;17142;47.990;7.846;2023-01-31T17:05:27;5.40;99.90
30336;DHT22;17142;47.990;7.846;2023-01-31T17:07:57;5.40;99.90
30336;DHT22;17142;47.990;7.846;2023-01-31T17:10:25;5.30;99.90
30336;DHT22;17142;47.990;7.846;2023-01-31T17:13:31;5.40;99.90
30336;DHT22;17142;47.990;7.846;2023-01-31T17:15:52;5.40;99.90
30336;DHT22;17142;47.990;7.846;2023-01-31T17:18:18;5.30;99.90
30336;DHT22;17142;47.990;7.846;2023-01-31T17:20:45;5.30;99.90
30336;DHT22;17142;47.990;7.846;2023-01-31T17:23:13;5.30;99.90
30336;DHT22;17142;47.990;7.846;2023-01-31T17:25:39;5.30;99.90
30336;DHT22;17142;47.990;7.846;2023-01-31T17:28:05;5.30;99.90
30336;DHT22;17142;47.990;7.846;2023-01-31T17:30:36;5.30;99.90
30336;DHT22;17142;47.990;7.846;2023-01-31T17:33:03;5.30;99.90
30336;DHT22;17142;47.990;7.846;2023-01-31T17:35:35;5.20;99.90
30336;DHT22;17142;47.990;7.846;2023-01-31T17:38:01;5.20;99.90
30336;DHT22;17142;47.990;7.846;2023-01-31T17:40:27;5.20;99.90
30336;DHT22;17142;47.990;7.846;2023-01-31T17:42:57;5.30;99.90
30336;DHT22;17142;47.990;7.846;2023-01-31T17:45:26;5.30;99.90
30336;DHT22;17142;47.990;7.846;2023-01-31T17:47:55;5.30;99.90
30336;DHT22;17142;47.990;7.846;2023-01-31T17:50:23;5.20;99.90
30336;DHT22;17142;47.990;7.846;2023-01-31T17:52:50;5.30;99.90
30336;DHT22;17142;47.990;7.846;2023-01-31T17:55:20;5.30;99.90
30336;DHT22;17142;47.990;7.846;2023-01-31T17:57:47;5.30;99.90
30336;DHT22;17142;47.990;7.846;2023-01-31T18:00:15;5.30;99.90
30336;DHT22;17142;47.990;7.846;2023-01-31T18:02:41;5.30;99.90
30336;DHT22;17142;47.990;7.846;2023-01-31T18:05:12;5.30;99.90
30336;DHT22;17142;47.990;7.846;2023-01-31T18:07:38;5.30;99.90
30336;DHT22;17142;47.990;7.846;2023-01-31T18:10:05;5.30;99.90
30336;DHT22;17142;47.990;7.846;2023-01-31T18:12:31;5.30;99.90
30336;DHT22;17142;47.990;7.846;2023-01-31T18:15:00;5.30;99.90
30336;DHT22;17142;47.990;7.846;2023-01-31T18:17:26;5.30;99.90
30336;DHT22;17142;47.990;7.846;2023-01-31T18:19:52;5.20;99.90
30336;DHT22;17142;47.990;7.846;2023-01-31T18:22:17;5.20;99.90
30336;DHT22;17142;47.990;7.846;2023-01-31T18:24:46;5.20;99.90
30336;DHT22;17142;47.990;7.846;2023-01-31T18:27:12;5.20;99.90
30336;DHT22;17142;47.990;7.846;2023-01-31T18:29:40;5.20;99.90
30336;DHT22;17142;47.990;7.846;2023-01-31T18:32:05;5.20;99.90
30336;DHT22;17142;47.990;7.846;2023-01-31T18:34:34;5.20;99.90
30336;DHT22;17142;47.990;7.846;2023-01-31T18:37:03;5.20;99.90
30336;DHT22;17142;47.990;7.846;2023-01-31T18:39:42;5.20;99.90
30336;DHT22;17142;47.990;7.846;2023-01-31T18:42:07;5.20;99.90
30336;DHT22;17142;47.990;7.846;2023-01-31T18:44:33;5.10;99.90
30336;DHT22;17142;47.990;7.846;2023-01-31T18:47:01;5.10;99.90
30336;DHT22;17142;47.990;7.846;2023-01-31T18:49:27;5.10;99.90
30336;DHT22;17142;47.990;7.846;2023-01-31T18:51:52;5.10;99.90
30336;DHT22;17142;47.990;7.846;2023-01-31T18:54:18;5.10;99.90
30336;DHT22;17142;47.990;7.846;2023-01-31T18:56:43;5.10;99.90
30336;DHT22;17142;47.990;7.846;2023-01-31T18:59:12;5.10;99.90
30336;DHT22;17142;47.990;7.846;2023-01-31T19:01:40;5.10;99.90
30336;DHT22;17142;47.990;7.846;2023-01-31T19:04:06;5.10;99.90
30336;DHT22;17142;47.990;7.846;2023-01-31T19:06:36;5.20;99.90
30336;DHT22;17142;47.990;7.846;2023-01-31T19:09:04;5.20;99.90
30336;DHT22;17142;47.990;7.846;2023-01-31T19:11:33;5.20;99.90
30336;DHT22;17142;47.990;7.846;2023-01-31T19:14:04;5.20;99.90
30336;DHT22;17142;47.990;7.846;2023-01-31T19:16:37;5.10;99.90
30336;DHT22;17142;47.990;7.846;2023-01-31T19:19:04;5.10;99.90
30336;DHT22;17142;47.990;7.846;2023-01-31T19:21:34;5.10;99.90
30336;DHT22;17142;47.990;7.846;2023-01-31T19:24:09;5.10;99.90
30336;DHT22;17142;47.990;7.846;2023-01-31T19:26:37;5.10;99.90
30336;DHT22;17142;47.990;7.846;2023-01-31T19:29:04;5.10;99.90
30336;DHT22;17142;47.990;7.846;2023-01-31T19:31:31;5.10;99.90
30336;DHT22;17142;47.990;7.846;2023-01-31T19:34:00;5.10;99.90
30336;DHT22;17142;47.990;7.846;2023-01-31T19:36:29;5.10;99.90
30336;DHT22;17142;47.990;7.846;2023-01-31T19:38:59;5.10;99.90
30336;DHT22;17142;47.990;7.846;2023-01-31T19:41:27;5.10;99.90
30336;DHT22;17142;47.990;7.846;2023-01-31T19:43:55;5.00;99.90
30336;DHT22;17142;47.990;7.846;2023-01-31T19:46:22;5.00;99.90
30336;DHT22;17142;47.990;7.846;2023-01-31T19:48:48;5.00;99.90
30336;DHT22;17142;47.990;7.846;2023-01-31T19:51:20;5.00;99.90
30336;DHT22;17142;47.990;7.846;2023-01-31T19:53:47;5.00;99.90
30336;DHT22;17142;47.990;7.846;2023-01-31T19:56:15;5.00;99.90
30336;DHT22;17142;47.990;7.846;2023-01-31T19:58:41;5.00;99.90
30336;DHT22;17142;47.990;7.846;2023-01-31T20:01:12;4.90;99.90
30336;DHT22;17142;47.990;7.846;2023-01-31T20:03:38;5.00;99.90
30336;DHT22;17142;47.990;7.846;2023-01-31T20:08:34;4.90;99.90
30336;DHT22;17142;47.990;7.846;2023-01-31T20:11:03;5.00;99.90
30336;DHT22;17142;47.990;7.846;2023-01-31T20:13:32;5.00;99.90
30336;DHT22;17142;47.990;7.846;2023-01-31T20:16:06;5.10;99.90
30336;DHT22;17142;47.990;7.846;2023-01-31T20:18:35;5.10;99.90
30336;DHT22;17142;47.990;7.846;2023-01-31T20:21:04;5.10;99.90
30336;DHT22;17142;47.990;7.846;2023-01-31T20:23:30;5.10;99.90
30336;DHT22;17142;47.990;7.846;2023-01-31T20:25:56;5.10;99.90
30336;DHT22;17142;47.990;7.846;2023-01-31T20:28:22;5.10;99.90
30336;DHT22;17142;47.990;7.846;2023-01-31T20:30:48;5.10;99.90
30336;DHT22;17142;47.990;7.846;2023-01-31T20:33:14;5.10;99.90
30336;DHT22;17142;47.990;7.846;2023-01-31T20:35:41;5.10;99.90
30336;DHT22;17142;47.990;7.846;2023-01-31T20:38:07;5.20;99.90
30336;DHT22;17142;47.990;7.846;2023-01-31T20:40:35;5.20;99.90
30336;DHT22;17142;47.990;7.846;2023-01-31T20:43:00;5.20;99.90
30336;DHT22;17142;47.990;7.846;2023-01-31T20:45:26;5.30;99.90
30336;DHT22;17142;47.990;7.846;2023-01-31T20:47:57;5.20;99.90
30336;DHT22;17142;47.990;7.846;2023-01-31T20:50:24;5.20;99.90
30336;DHT22;17142;47.990;7.846;2023-01-31T20:52:52;5.20;99.90
30336;DHT22;17142;47.990;7.846;2023-01-31T20:55:18;5.20;99.90
30336;DHT22;17142;47.990;7.846;2023-01-31T20:57:45;5.20;99.90
30336;DHT22;17142;47.990;7.846;2023-01-31T21:00:19;5.20;99.90
30336;DHT22;17142;47.990;7.846;2023-01-31T21:02:50;5.20;99.90
30336;DHT22;17142;47.990;7.846;2023-01-31T21:05:18;5.20;99.90
30336;DHT22;17142;47.990;7.846;2023-01-31T21:07:44;5.20;99.90
30336;DHT22;17142;47.990;7.846;2023-01-31T21:10:11;5.20;99.90
30336;DHT22;17142;47.990;7.846;2023-01-31T21:12:39;5.20;99.90
30336;DHT22;17142;47.990;7.846;2023-01-31T21:15:07;5.20;99.90
30336;DHT22;17142;47.990;7.846;2023-01-31T21:17:33;5.20;99.90
30336;DHT22;17142;47.990;7.846;2023-01-31T21:19:59;5.20;99.90
30336;DHT22;17142;47.990;7.846;2023-01-31T21:22:24;5.30;99.90
30336;DHT22;17142;47.990;7.846;2023-01-31T21:24:50;5.40;99.90
30336;DHT22;17142;47.990;7.846;2023-01-31T21:27:15;5.40;99.90
30336;DHT22;17142;47.990;7.846;2023-01-31T21:29:42;5.30;99.90
30336;DHT22;17142;47.990;7.846;2023-01-31T21:32:07;5.20;99.90
30336;DHT22;17142;47.990;7.846;2023-01-31T21:34:33;5.20;99.90
30336;DHT22;17142;47.990;7.846;2023-01-31T21:36:59;5.20;99.90
30336;DHT22;17142;47.990;7.846;2023-01-31T21:39:28;5.10;99.90
30336;DHT22;17142;47.990;7.846;2023-01-31T21:41:53;5.10;99.90
30336;DHT22;17142;47.990;7.846;2023-01-31T21:44:37;5.20;99.90
30336;DHT22;17142;47.990;7.846;2023-01-31T21:47:05;5.20;99.90
30336;DHT22;17142;47.990;7.846;2023-01-31T21:49:33;5.10;99.90
30336;DHT22;17142;47.990;7.846;2023-01-31T21:52:01;5.10;99.90
30336;DHT22;17142;47.990;7.846;2023-01-31T21:54:27;5.10;99.90
30336;DHT22;17142;47.990;7.846;2023-01-31T21:56:53;5.10;99.90
30336;DHT22;17142;47.990;7.846;2023-01-31T21:59:19;5.10;99.90
30336;DHT22;17142;47.990;7.846;2023-01-31T22:01:49;5.10;99.90
